sensor_id;sensor_type;location;lat;lon;timestamp;P1;durP1;ratioP1;P2;durP2;ratioP2
4122;SDS011;2075;51.062;6.920;2022-08-19T00:02:06;11.90;;;10.60;;
4122;SDS011;2075;51.062;6.920;2022-08-19T00:04:51;20.27;;;11.40;;
4122;SDS011;2075;51.062;6.920;2022-08-19T00:07:37;14.53;;;11.33;;
4122;SDS011;2075;51.062;6.920;2022-08-19T00:10:24;15.20;;;11.40;;
4122;SDS011;2075;51.062;6.920;2022-08-19T00:13:09;12.10;;;10.90;;
4122;SDS011;2075;51.062;6.920;2022-08-19T00:15:54;14.67;;;12.10;;
4122;SDS011;2075;51.062;6.920;2022-08-19T00:18:39;13.57;;;12.17;;
4122;SDS011;2075;51.062;6.920;2022-08-19T00:21:25;14.30;;;11.67;;
4122;SDS011;2075;51.062;6.920;2022-08-19T00:24:11;17.20;;;12.10;;
4122;SDS011;2075;51.062;6.920;2022-08-19T00:26:58;14.90;;;11.03;;
4122;SDS011;2075;51.062;6.920;2022-08-19T00:29:45;17.60;;;12.10;;
4122;SDS011;2075;51.062;6.920;2022-08-19T00:32:31;14.40;;;12.57;;
4122;SDS011;2075;51.062;6.920;2022-08-19T00:35:16;13.70;;;10.73;;
4122;SDS011;2075;51.062;6.920;2022-08-19T00:38:02;13.00;;;11.60;;
4122;SDS011;2075;51.062;6.920;2022-08-19T00:40:48;19.53;;;11.10;;
4122;SDS011;2075;51.062;6.920;2022-08-19T00:43:35;13.07;;;11.70;;
4122;SDS011;2075;51.062;6.920;2022-08-19T00:46:21;13.37;;;11.13;;
4122;SDS011;2075;51.062;6.920;2022-08-19T00:49:06;14.93;;;11.40;;
4122;SDS011;2075;51.062;6.920;2022-08-19T00:51:55;12.13;;;10.93;;
4122;SDS011;2075;51.062;6.920;2022-08-19T00:54:41;14.90;;;11.80;;
4122;SDS011;2075;51.062;6.920;2022-08-19T00:57:27;15.80;;;11.80;;
4122;SDS011;2075;51.062;6.920;2022-08-19T01:00:15;15.13;;;11.53;;
4122;SDS011;2075;51.062;6.920;2022-08-19T01:03:09;12.93;;;11.60;;
4122;SDS011;2075;51.062;6.920;2022-08-19T02:38:30;26.40;;;19.70;;
4122;SDS011;2075;51.062;6.920;2022-08-19T02:41:52;24.40;;;18.03;;
4122;SDS011;2075;51.062;6.920;2022-08-19T03:32:13;25.03;;;17.50;;
4122;SDS011;2075;51.062;6.920;2022-08-19T03:34:58;23.73;;;17.57;;
4122;SDS011;2075;51.062;6.920;2022-08-19T03:37:44;28.47;;;17.70;;
4122;SDS011;2075;51.062;6.920;2022-08-19T03:40:29;39.53;;;28.87;;
4122;SDS011;2075;51.062;6.920;2022-08-19T03:43:14;42.97;;;34.37;;
4122;SDS011;2075;51.062;6.920;2022-08-19T03:46:02;30.37;;;23.20;;
4122;SDS011;2075;51.062;6.920;2022-08-19T03:48:50;27.33;;;20.93;;
4122;SDS011;2075;51.062;6.920;2022-08-19T03:51:38;23.80;;;17.93;;
4122;SDS011;2075;51.062;6.920;2022-08-19T03:54:23;23.43;;;19.13;;
4122;SDS011;2075;51.062;6.920;2022-08-19T03:57:08;24.67;;;17.27;;
4122;SDS011;2075;51.062;6.920;2022-08-19T03:59:54;24.03;;;17.10;;
4122;SDS011;2075;51.062;6.920;2022-08-19T04:02:39;25.50;;;17.90;;
4122;SDS011;2075;51.062;6.920;2022-08-19T04:05:27;26.03;;;18.63;;
4122;SDS011;2075;51.062;6.920;2022-08-19T04:08:13;201.07;;;152.20;;
4122;SDS011;2075;51.062;6.920;2022-08-19T04:11:05;59.83;;;49.30;;
4122;SDS011;2075;51.062;6.920;2022-08-19T04:13:52;36.40;;;29.30;;
4122;SDS011;2075;51.062;6.920;2022-08-19T04:16:37;28.90;;;21.97;;
4122;SDS011;2075;51.062;6.920;2022-08-19T04:19:22;33.20;;;22.73;;
4122;SDS011;2075;51.062;6.920;2022-08-19T04:22:09;35.23;;;23.53;;
4122;SDS011;2075;51.062;6.920;2022-08-19T04:24:54;31.80;;;22.30;;
4122;SDS011;2075;51.062;6.920;2022-08-19T04:27:39;31.47;;;22.47;;
4122;SDS011;2075;51.062;6.920;2022-08-19T04:30:30;33.17;;;21.30;;
4122;SDS011;2075;51.062;6.920;2022-08-19T04:33:16;30.13;;;20.93;;
4122;SDS011;2075;51.062;6.920;2022-08-19T04:36:01;33.93;;;22.60;;
4122;SDS011;2075;51.062;6.920;2022-08-19T04:38:48;36.77;;;22.97;;
4122;SDS011;2075;51.062;6.920;2022-08-19T04:41:34;41.57;;;24.73;;
4122;SDS011;2075;51.062;6.920;2022-08-19T04:44:37;46.03;;;26.63;;
4122;SDS011;2075;51.062;6.920;2022-08-19T04:47:22;45.93;;;29.00;;
4122;SDS011;2075;51.062;6.920;2022-08-19T04:50:07;44.37;;;28.67;;
4122;SDS011;2075;51.062;6.920;2022-08-19T04:52:55;46.13;;;28.07;;
4122;SDS011;2075;51.062;6.920;2022-08-19T04:55:42;42.53;;;27.57;;
4122;SDS011;2075;51.062;6.920;2022-08-19T04:58:27;44.13;;;26.40;;
4122;SDS011;2075;51.062;6.920;2022-08-19T05:01:12;47.30;;;29.83;;
4122;SDS011;2075;51.062;6.920;2022-08-19T05:03:58;46.60;;;28.50;;
4122;SDS011;2075;51.062;6.920;2022-08-19T05:06:44;46.73;;;29.30;;
4122;SDS011;2075;51.062;6.920;2022-08-19T05:09:30;44.23;;;27.60;;
4122;SDS011;2075;51.062;6.920;2022-08-19T05:12:17;55.23;;;30.77;;
4122;SDS011;2075;51.062;6.920;2022-08-19T05:15:03;39.10;;;28.50;;
4122;SDS011;2075;51.062;6.920;2022-08-19T05:17:49;44.53;;;29.17;;
4122;SDS011;2075;51.062;6.920;2022-08-19T05:20:52;49.60;;;31.27;;
4122;SDS011;2075;51.062;6.920;2022-08-19T05:23:55;51.53;;;32.77;;
4122;SDS011;2075;51.062;6.920;2022-08-19T05:26:41;52.53;;;31.80;;
4122;SDS011;2075;51.062;6.920;2022-08-19T05:29:28;54.17;;;34.83;;
4122;SDS011;2075;51.062;6.920;2022-08-19T05:32:15;53.70;;;33.40;;
4122;SDS011;2075;51.062;6.920;2022-08-19T05:35:00;53.97;;;33.27;;
4122;SDS011;2075;51.062;6.920;2022-08-19T05:37:45;48.23;;;33.70;;
4122;SDS011;2075;51.062;6.920;2022-08-19T05:40:30;53.10;;;32.57;;
4122;SDS011;2075;51.062;6.920;2022-08-19T05:43:16;55.07;;;33.60;;
4122;SDS011;2075;51.062;6.920;2022-08-19T05:46:02;47.53;;;31.43;;
4122;SDS011;2075;51.062;6.920;2022-08-19T05:48:49;49.17;;;32.40;;
4122;SDS011;2075;51.062;6.920;2022-08-19T05:51:35;44.57;;;32.53;;
4122;SDS011;2075;51.062;6.920;2022-08-19T05:54:20;48.10;;;31.20;;
4122;SDS011;2075;51.062;6.920;2022-08-19T05:57:07;51.00;;;31.40;;
4122;SDS011;2075;51.062;6.920;2022-08-19T05:59:52;46.83;;;32.20;;
4122;SDS011;2075;51.062;6.920;2022-08-19T06:02:40;47.23;;;33.80;;
4122;SDS011;2075;51.062;6.920;2022-08-19T06:05:25;54.87;;;32.13;;
4122;SDS011;2075;51.062;6.920;2022-08-19T06:08:10;49.20;;;32.10;;
4122;SDS011;2075;51.062;6.920;2022-08-19T06:10:55;45.23;;;32.40;;
4122;SDS011;2075;51.062;6.920;2022-08-19T06:13:41;49.40;;;33.20;;
4122;SDS011;2075;51.062;6.920;2022-08-19T06:16:27;48.30;;;31.93;;
4122;SDS011;2075;51.062;6.920;2022-08-19T06:19:14;45.67;;;32.30;;
4122;SDS011;2075;51.062;6.920;2022-08-19T06:22:00;52.00;;;32.00;;
4122;SDS011;2075;51.062;6.920;2022-08-19T06:24:45;41.13;;;30.97;;
4122;SDS011;2075;51.062;6.920;2022-08-19T06:27:30;42.93;;;30.80;;
4122;SDS011;2075;51.062;6.920;2022-08-19T06:30:16;39.50;;;28.30;;
4122;SDS011;2075;51.062;6.920;2022-08-19T06:33:02;78.83;;;70.47;;
4122;SDS011;2075;51.062;6.920;2022-08-19T06:35:48;41.70;;;28.80;;
4122;SDS011;2075;51.062;6.920;2022-08-19T06:38:34;32.00;;;25.80;;
4122;SDS011;2075;51.062;6.920;2022-08-19T06:41:19;32.90;;;25.40;;
4122;SDS011;2075;51.062;6.920;2022-08-19T06:44:05;27.93;;;23.20;;
4122;SDS011;2075;51.062;6.920;2022-08-19T06:46:50;29.73;;;23.90;;
4122;SDS011;2075;51.062;6.920;2022-08-19T06:49:35;30.73;;;26.20;;
4122;SDS011;2075;51.062;6.920;2022-08-19T06:52:22;27.90;;;22.80;;
4122;SDS011;2075;51.062;6.920;2022-08-19T06:55:08;30.20;;;24.13;;
4122;SDS011;2075;51.062;6.920;2022-08-19T06:57:53;28.93;;;23.30;;
4122;SDS011;2075;51.062;6.920;2022-08-19T07:00:38;41.33;;;25.47;;
4122;SDS011;2075;51.062;6.920;2022-08-19T07:03:23;30.87;;;24.67;;
4122;SDS011;2075;51.062;6.920;2022-08-19T07:06:10;32.80;;;26.13;;
4122;SDS011;2075;51.062;6.920;2022-08-19T07:08:57;31.97;;;23.70;;
4122;SDS011;2075;51.062;6.920;2022-08-19T07:11:43;31.63;;;24.80;;
4122;SDS011;2075;51.062;6.920;2022-08-19T07:14:28;37.83;;;25.47;;
4122;SDS011;2075;51.062;6.920;2022-08-19T07:17:14;33.47;;;24.30;;
4122;SDS011;2075;51.062;6.920;2022-08-19T07:19:58;33.10;;;27.20;;
4122;SDS011;2075;51.062;6.920;2022-08-19T07:22:44;36.07;;;26.30;;
4122;SDS011;2075;51.062;6.920;2022-08-19T07:25:31;32.63;;;24.80;;
4122;SDS011;2075;51.062;6.920;2022-08-19T07:28:16;33.80;;;24.40;;
4122;SDS011;2075;51.062;6.920;2022-08-19T07:31:02;35.67;;;22.70;;
4122;SDS011;2075;51.062;6.920;2022-08-19T07:33:48;36.60;;;24.30;;
4122;SDS011;2075;51.062;6.920;2022-08-19T07:36:34;31.40;;;23.77;;
4122;SDS011;2075;51.062;6.920;2022-08-19T07:39:21;36.00;;;25.47;;
4122;SDS011;2075;51.062;6.920;2022-08-19T07:42:08;38.37;;;25.43;;
4122;SDS011;2075;51.062;6.920;2022-08-19T07:44:54;39.20;;;26.67;;
4122;SDS011;2075;51.062;6.920;2022-08-19T07:47:39;33.83;;;24.53;;
4122;SDS011;2075;51.062;6.920;2022-08-19T07:50:24;37.67;;;29.20;;
4122;SDS011;2075;51.062;6.920;2022-08-19T07:53:09;41.43;;;26.47;;
4122;SDS011;2075;51.062;6.920;2022-08-19T07:55:56;40.30;;;27.80;;
4122;SDS011;2075;51.062;6.920;2022-08-19T07:58:50;34.13;;;24.47;;
4122;SDS011;2075;51.062;6.920;2022-08-19T08:01:35;39.37;;;25.80;;
4122;SDS011;2075;51.062;6.920;2022-08-19T08:04:21;35.43;;;25.07;;
4122;SDS011;2075;51.062;6.920;2022-08-19T08:07:24;34.63;;;24.90;;
4122;SDS011;2075;51.062;6.920;2022-08-19T08:10:27;30.70;;;24.10;;
4122;SDS011;2075;51.062;6.920;2022-08-19T08:13:12;29.30;;;25.07;;
4122;SDS011;2075;51.062;6.920;2022-08-19T08:15:59;33.97;;;25.87;;
4122;SDS011;2075;51.062;6.920;2022-08-19T08:18:44;33.57;;;25.57;;
4122;SDS011;2075;51.062;6.920;2022-08-19T08:21:30;37.60;;;27.80;;
4122;SDS011;2075;51.062;6.920;2022-08-19T08:24:15;33.70;;;27.10;;
4122;SDS011;2075;51.062;6.920;2022-08-19T08:27:00;39.80;;;29.77;;
4122;SDS011;2075;51.062;6.920;2022-08-19T08:29:46;35.43;;;27.20;;
4122;SDS011;2075;51.062;6.920;2022-08-19T08:32:34;31.33;;;25.57;;
4122;SDS011;2075;51.062;6.920;2022-08-19T08:35:21;37.47;;;29.50;;
4122;SDS011;2075;51.062;6.920;2022-08-19T08:38:06;30.87;;;25.87;;
4122;SDS011;2075;51.062;6.920;2022-08-19T08:40:53;36.07;;;25.90;;
4122;SDS011;2075;51.062;6.920;2022-08-19T08:43:40;30.43;;;25.37;;
4122;SDS011;2075;51.062;6.920;2022-08-19T08:46:29;31.73;;;24.17;;
4122;SDS011;2075;51.062;6.920;2022-08-19T08:49:23;30.93;;;25.33;;
4122;SDS011;2075;51.062;6.920;2022-08-19T08:52:13;32.20;;;26.20;;
4122;SDS011;2075;51.062;6.920;2022-08-19T08:55:04;36.70;;;28.90;;
4122;SDS011;2075;51.062;6.920;2022-08-19T08:57:51;40.17;;;29.07;;
4122;SDS011;2075;51.062;6.920;2022-08-19T09:00:39;40.30;;;27.50;;
4122;SDS011;2075;51.062;6.920;2022-08-19T09:03:26;42.20;;;29.70;;
4122;SDS011;2075;51.062;6.920;2022-08-19T09:06:14;43.70;;;28.80;;
4122;SDS011;2075;51.062;6.920;2022-08-19T09:09:04;43.40;;;30.57;;
4122;SDS011;2075;51.062;6.920;2022-08-19T09:11:54;52.37;;;31.20;;
4122;SDS011;2075;51.062;6.920;2022-08-19T09:14:43;40.27;;;29.50;;
4122;SDS011;2075;51.062;6.920;2022-08-19T09:17:30;41.60;;;30.40;;
4122;SDS011;2075;51.062;6.920;2022-08-19T09:20:19;44.00;;;30.73;;
4122;SDS011;2075;51.062;6.920;2022-08-19T09:23:06;38.43;;;24.87;;
4122;SDS011;2075;51.062;6.920;2022-08-19T09:25:52;51.20;;;26.63;;
4122;SDS011;2075;51.062;6.920;2022-08-19T09:28:37;37.77;;;24.43;;
4122;SDS011;2075;51.062;6.920;2022-08-19T09:31:23;51.23;;;27.37;;
4122;SDS011;2075;51.062;6.920;2022-08-19T09:34:09;37.70;;;25.73;;
4122;SDS011;2075;51.062;6.920;2022-08-19T09:36:54;38.40;;;26.97;;
4122;SDS011;2075;51.062;6.920;2022-08-19T09:39:43;43.00;;;27.67;;
4122;SDS011;2075;51.062;6.920;2022-08-19T09:42:28;40.50;;;25.67;;
4122;SDS011;2075;51.062;6.920;2022-08-19T09:45:14;35.43;;;26.83;;
4122;SDS011;2075;51.062;6.920;2022-08-19T09:48:00;41.90;;;25.47;;
4122;SDS011;2075;51.062;6.920;2022-08-19T09:50:45;31.73;;;22.47;;
4122;SDS011;2075;51.062;6.920;2022-08-19T09:53:30;31.87;;;22.40;;
4122;SDS011;2075;51.062;6.920;2022-08-19T09:56:17;28.80;;;21.97;;
4122;SDS011;2075;51.062;6.920;2022-08-19T09:59:03;29.67;;;20.20;;
4122;SDS011;2075;51.062;6.920;2022-08-19T10:01:48;29.83;;;21.13;;
4122;SDS011;2075;51.062;6.920;2022-08-19T10:04:34;31.37;;;19.63;;
4122;SDS011;2075;51.062;6.920;2022-08-19T10:07:33;25.47;;;19.17;;
4122;SDS011;2075;51.062;6.920;2022-08-19T10:10:19;28.77;;;20.80;;
4122;SDS011;2075;51.062;6.920;2022-08-19T10:13:06;25.83;;;16.33;;
4122;SDS011;2075;51.062;6.920;2022-08-19T10:15:51;22.77;;;14.70;;
4122;SDS011;2075;51.062;6.920;2022-08-19T10:18:37;20.77;;;14.60;;
4122;SDS011;2075;51.062;6.920;2022-08-19T10:21:28;26.07;;;18.10;;
4122;SDS011;2075;51.062;6.920;2022-08-19T10:24:13;23.70;;;17.10;;
4122;SDS011;2075;51.062;6.920;2022-08-19T10:26:59;20.10;;;16.07;;
4122;SDS011;2075;51.062;6.920;2022-08-19T10:29:48;29.23;;;15.43;;
4122;SDS011;2075;51.062;6.920;2022-08-19T10:32:34;15.70;;;11.93;;
4122;SDS011;2075;51.062;6.920;2022-08-19T10:35:19;18.77;;;14.03;;
4122;SDS011;2075;51.062;6.920;2022-08-19T10:38:04;21.77;;;14.00;;
4122;SDS011;2075;51.062;6.920;2022-08-19T10:40:50;20.50;;;13.97;;
4122;SDS011;2075;51.062;6.920;2022-08-19T10:43:37;15.87;;;13.60;;
4122;SDS011;2075;51.062;6.920;2022-08-19T10:46:26;21.87;;;14.27;;
4122;SDS011;2075;51.062;6.920;2022-08-19T10:49:12;15.20;;;13.50;;
4122;SDS011;2075;51.062;6.920;2022-08-19T10:51:57;19.10;;;14.07;;
4122;SDS011;2075;51.062;6.920;2022-08-19T10:55:00;16.60;;;12.60;;
4122;SDS011;2075;51.062;6.920;2022-08-19T10:58:03;17.27;;;12.73;;
4122;SDS011;2075;51.062;6.920;2022-08-19T11:00:51;20.13;;;12.90;;
4122;SDS011;2075;51.062;6.920;2022-08-19T11:03:38;16.93;;;12.87;;
4122;SDS011;2075;51.062;6.920;2022-08-19T11:06:23;23.60;;;14.40;;
4122;SDS011;2075;51.062;6.920;2022-08-19T11:09:09;18.83;;;14.83;;
4122;SDS011;2075;51.062;6.920;2022-08-19T11:11:55;23.03;;;15.37;;
4122;SDS011;2075;51.062;6.920;2022-08-19T11:14:40;18.77;;;12.87;;
4122;SDS011;2075;51.062;6.920;2022-08-19T11:17:26;15.90;;;12.87;;
4122;SDS011;2075;51.062;6.920;2022-08-19T11:20:13;17.13;;;12.03;;
4122;SDS011;2075;51.062;6.920;2022-08-19T11:22:59;19.53;;;12.73;;
4122;SDS011;2075;51.062;6.920;2022-08-19T11:25:44;17.03;;;12.30;;
4122;SDS011;2075;51.062;6.920;2022-08-19T11:28:30;19.93;;;14.70;;
4122;SDS011;2075;51.062;6.920;2022-08-19T11:31:16;17.80;;;15.13;;
4122;SDS011;2075;51.062;6.920;2022-08-19T11:34:02;16.70;;;13.43;;
4122;SDS011;2075;51.062;6.920;2022-08-19T11:36:49;22.07;;;13.43;;
4122;SDS011;2075;51.062;6.920;2022-08-19T11:39:35;23.90;;;13.67;;
4122;SDS011;2075;51.062;6.920;2022-08-19T11:42:21;17.90;;;12.80;;
4122;SDS011;2075;51.062;6.920;2022-08-19T11:45:25;13.00;;;11.30;;
4122;SDS011;2075;51.062;6.920;2022-08-19T11:48:10;14.80;;;11.27;;
4122;SDS011;2075;51.062;6.920;2022-08-19T11:50:58;18.77;;;12.60;;
4122;SDS011;2075;51.062;6.920;2022-08-19T11:53:44;12.33;;;9.73;;
4122;SDS011;2075;51.062;6.920;2022-08-19T11:56:30;18.93;;;11.20;;
4122;SDS011;2075;51.062;6.920;2022-08-19T11:59:15;11.90;;;10.23;;
4122;SDS011;2075;51.062;6.920;2022-08-19T12:02:00;11.37;;;9.93;;
4122;SDS011;2075;51.062;6.920;2022-08-19T12:04:46;18.53;;;11.60;;
4122;SDS011;2075;51.062;6.920;2022-08-19T12:07:33;15.37;;;10.97;;
4122;SDS011;2075;51.062;6.920;2022-08-19T12:10:19;9.80;;;8.80;;
4122;SDS011;2075;51.062;6.920;2022-08-19T12:13:05;15.23;;;8.70;;
4122;SDS011;2075;51.062;6.920;2022-08-19T12:15:51;10.53;;;8.27;;
4122;SDS011;2075;51.062;6.920;2022-08-19T12:18:37;15.80;;;9.10;;
4122;SDS011;2075;51.062;6.920;2022-08-19T12:21:23;9.70;;;8.30;;
4122;SDS011;2075;51.062;6.920;2022-08-19T12:24:09;11.33;;;9.30;;
4122;SDS011;2075;51.062;6.920;2022-08-19T12:26:56;9.77;;;8.30;;
4122;SDS011;2075;51.062;6.920;2022-08-19T12:29:42;16.17;;;8.93;;
4122;SDS011;2075;51.062;6.920;2022-08-19T12:32:28;11.47;;;7.90;;
4122;SDS011;2075;51.062;6.920;2022-08-19T12:35:13;8.63;;;7.40;;
4122;SDS011;2075;51.062;6.920;2022-08-19T12:37:58;8.63;;;7.47;;
4122;SDS011;2075;51.062;6.920;2022-08-19T12:40:45;14.23;;;8.23;;
4122;SDS011;2075;51.062;6.920;2022-08-19T12:43:33;13.77;;;9.10;;
4122;SDS011;2075;51.062;6.920;2022-08-19T12:46:18;10.37;;;9.33;;
4122;SDS011;2075;51.062;6.920;2022-08-19T12:49:04;17.23;;;8.87;;
4122;SDS011;2075;51.062;6.920;2022-08-19T12:51:49;15.20;;;8.60;;
4122;SDS011;2075;51.062;6.920;2022-08-19T12:54:36;11.17;;;9.13;;
4122;SDS011;2075;51.062;6.920;2022-08-19T12:57:21;10.30;;;8.10;;
4122;SDS011;2075;51.062;6.920;2022-08-19T13:00:09;10.13;;;8.77;;
4122;SDS011;2075;51.062;6.920;2022-08-19T13:02:56;9.80;;;8.90;;
4122;SDS011;2075;51.062;6.920;2022-08-19T13:05:41;13.03;;;8.63;;
4122;SDS011;2075;51.062;6.920;2022-08-19T13:08:26;10.17;;;8.50;;
4122;SDS011;2075;51.062;6.920;2022-08-19T13:11:12;8.90;;;8.10;;
4122;SDS011;2075;51.062;6.920;2022-08-19T13:13:58;14.60;;;7.67;;
4122;SDS011;2075;51.062;6.920;2022-08-19T13:16:44;11.57;;;7.77;;
4122;SDS011;2075;51.062;6.920;2022-08-19T13:19:30;7.70;;;7.00;;
4122;SDS011;2075;51.062;6.920;2022-08-19T13:22:15;8.77;;;6.67;;
4122;SDS011;2075;51.062;6.920;2022-08-19T13:25:02;10.77;;;7.13;;
4122;SDS011;2075;51.062;6.920;2022-08-19T13:27:48;7.10;;;6.47;;
4122;SDS011;2075;51.062;6.920;2022-08-19T13:30:33;8.73;;;6.07;;
4122;SDS011;2075;51.062;6.920;2022-08-19T13:33:38;13.03;;;5.40;;
4122;SDS011;2075;51.062;6.920;2022-08-19T13:36:23;6.77;;;6.00;;
4122;SDS011;2075;51.062;6.920;2022-08-19T13:39:08;10.17;;;6.53;;
4122;SDS011;2075;51.062;6.920;2022-08-19T13:41:54;7.80;;;6.10;;
4122;SDS011;2075;51.062;6.920;2022-08-19T13:44:39;6.37;;;5.80;;
4122;SDS011;2075;51.062;6.920;2022-08-19T13:47:24;7.33;;;6.33;;
4122;SDS011;2075;51.062;6.920;2022-08-19T13:50:12;12.97;;;5.80;;
4122;SDS011;2075;51.062;6.920;2022-08-19T13:52:59;18.40;;;5.83;;
4122;SDS011;2075;51.062;6.920;2022-08-19T13:55:45;8.77;;;5.97;;
4122;SDS011;2075;51.062;6.920;2022-08-19T13:58:30;5.30;;;4.90;;
4122;SDS011;2075;51.062;6.920;2022-08-19T14:01:18;10.73;;;6.10;;
4122;SDS011;2075;51.062;6.920;2022-08-19T14:04:04;7.97;;;6.10;;
4122;SDS011;2075;51.062;6.920;2022-08-19T14:06:51;7.40;;;6.33;;
4122;SDS011;2075;51.062;6.920;2022-08-19T14:09:36;7.93;;;5.77;;
4122;SDS011;2075;51.062;6.920;2022-08-19T14:12:21;14.53;;;6.20;;
4122;SDS011;2075;51.062;6.920;2022-08-19T14:15:07;8.47;;;5.73;;
4122;SDS011;2075;51.062;6.920;2022-08-19T14:17:52;8.23;;;6.23;;
4122;SDS011;2075;51.062;6.920;2022-08-19T14:20:38;9.20;;;5.63;;
4122;SDS011;2075;51.062;6.920;2022-08-19T14:23:24;5.70;;;5.20;;
4122;SDS011;2075;51.062;6.920;2022-08-19T14:26:11;6.70;;;5.03;;
4122;SDS011;2075;51.062;6.920;2022-08-19T14:28:57;12.63;;;5.27;;
4122;SDS011;2075;51.062;6.920;2022-08-19T14:31:42;8.63;;;5.10;;
4122;SDS011;2075;51.062;6.920;2022-08-19T14:34:28;4.23;;;3.70;;
4122;SDS011;2075;51.062;6.920;2022-08-19T14:37:15;4.73;;;4.30;;
4122;SDS011;2075;51.062;6.920;2022-08-19T14:40:02;8.20;;;4.60;;
4122;SDS011;2075;51.062;6.920;2022-08-19T14:42:48;7.40;;;4.80;;
4122;SDS011;2075;51.062;6.920;2022-08-19T14:45:35;7.43;;;4.90;;
4122;SDS011;2075;51.062;6.920;2022-08-19T14:48:20;11.53;;;5.00;;
4122;SDS011;2075;51.062;6.920;2022-08-19T14:51:06;5.00;;;4.50;;
4122;SDS011;2075;51.062;6.920;2022-08-19T14:53:51;4.57;;;4.23;;
4122;SDS011;2075;51.062;6.920;2022-08-19T14:56:37;4.27;;;3.90;;
4122;SDS011;2075;51.062;6.920;2022-08-19T14:59:25;6.67;;;4.60;;
4122;SDS011;2075;51.062;6.920;2022-08-19T15:02:10;5.73;;;4.40;;
4122;SDS011;2075;51.062;6.920;2022-08-19T15:04:55;4.60;;;4.20;;
4122;SDS011;2075;51.062;6.920;2022-08-19T15:07:40;4.70;;;4.33;;
4122;SDS011;2075;51.062;6.920;2022-08-19T15:10:25;6.23;;;4.50;;
4122;SDS011;2075;51.062;6.920;2022-08-19T15:13:11;6.80;;;3.57;;
4122;SDS011;2075;51.062;6.920;2022-08-19T15:15:57;4.70;;;3.40;;
4122;SDS011;2075;51.062;6.920;2022-08-19T15:18:42;4.87;;;3.50;;
4122;SDS011;2075;51.062;6.920;2022-08-19T15:21:28;3.93;;;3.50;;
4122;SDS011;2075;51.062;6.920;2022-08-19T15:24:14;3.87;;;3.57;;
4122;SDS011;2075;51.062;6.920;2022-08-19T15:27:01;7.10;;;3.40;;
4122;SDS011;2075;51.062;6.920;2022-08-19T15:29:48;8.77;;;3.80;;
4122;SDS011;2075;51.062;6.920;2022-08-19T15:32:33;3.57;;;3.30;;
4122;SDS011;2075;51.062;6.920;2022-08-19T15:35:19;3.40;;;3.20;;
4122;SDS011;2075;51.062;6.920;2022-08-19T15:38:04;4.20;;;3.50;;
4122;SDS011;2075;51.062;6.920;2022-08-19T15:40:50;7.90;;;5.00;;
4122;SDS011;2075;51.062;6.920;2022-08-19T15:43:36;8.80;;;3.53;;
4122;SDS011;2075;51.062;6.920;2022-08-19T15:46:27;4.43;;;4.03;;
4122;SDS011;2075;51.062;6.920;2022-08-19T15:49:15;4.90;;;3.57;;
4122;SDS011;2075;51.062;6.920;2022-08-19T15:52:00;6.07;;;3.80;;
4122;SDS011;2075;51.062;6.920;2022-08-19T15:54:45;5.00;;;3.23;;
4122;SDS011;2075;51.062;6.920;2022-08-19T15:57:30;7.80;;;3.73;;
4122;SDS011;2075;51.062;6.920;2022-08-19T16:00:41;4.30;;;3.33;;
4122;SDS011;2075;51.062;6.920;2022-08-19T16:03:45;4.07;;;3.43;;
4122;SDS011;2075;51.062;6.920;2022-08-19T16:06:49;5.07;;;3.57;;
4122;SDS011;2075;51.062;6.920;2022-08-19T16:09:34;6.30;;;3.60;;
4122;SDS011;2075;51.062;6.920;2022-08-19T16:12:19;8.23;;;3.50;;
4122;SDS011;2075;51.062;6.920;2022-08-19T16:15:08;8.43;;;3.63;;
4122;SDS011;2075;51.062;6.920;2022-08-19T16:17:54;6.47;;;4.37;;
4122;SDS011;2075;51.062;6.920;2022-08-19T16:20:40;6.60;;;4.13;;
4122;SDS011;2075;51.062;6.920;2022-08-19T16:23:27;4.83;;;4.27;;
4122;SDS011;2075;51.062;6.920;2022-08-19T16:26:12;4.37;;;3.97;;
4122;SDS011;2075;51.062;6.920;2022-08-19T16:28:58;5.97;;;4.30;;
4122;SDS011;2075;51.062;6.920;2022-08-19T16:31:44;3.97;;;3.67;;
4122;SDS011;2075;51.062;6.920;2022-08-19T16:34:29;8.37;;;5.10;;
4122;SDS011;2075;51.062;6.920;2022-08-19T16:37:16;6.37;;;4.00;;
4122;SDS011;2075;51.062;6.920;2022-08-19T16:40:02;4.63;;;4.00;;
4122;SDS011;2075;51.062;6.920;2022-08-19T16:42:47;4.20;;;3.70;;
4122;SDS011;2075;51.062;6.920;2022-08-19T16:45:32;4.33;;;3.57;;
4122;SDS011;2075;51.062;6.920;2022-08-19T16:48:17;4.10;;;3.80;;
4122;SDS011;2075;51.062;6.920;2022-08-19T16:51:02;5.23;;;3.40;;
4122;SDS011;2075;51.062;6.920;2022-08-19T16:53:52;4.30;;;3.47;;
4122;SDS011;2075;51.062;6.920;2022-08-19T16:56:37;4.33;;;4.03;;
4122;SDS011;2075;51.062;6.920;2022-08-19T16:59:23;4.03;;;3.63;;
4122;SDS011;2075;51.062;6.920;2022-08-19T17:02:08;5.20;;;3.60;;
4122;SDS011;2075;51.062;6.920;2022-08-19T17:04:52;4.00;;;3.70;;
4122;SDS011;2075;51.062;6.920;2022-08-19T17:07:38;4.60;;;4.17;;
4122;SDS011;2075;51.062;6.920;2022-08-19T17:10:24;3.63;;;3.33;;
4122;SDS011;2075;51.062;6.920;2022-08-19T17:13:10;5.80;;;3.97;;
4122;SDS011;2075;51.062;6.920;2022-08-19T17:15:57;4.50;;;4.10;;
4122;SDS011;2075;51.062;6.920;2022-08-19T17:18:42;3.70;;;3.40;;
4122;SDS011;2075;51.062;6.920;2022-08-19T17:21:28;3.73;;;3.43;;
4122;SDS011;2075;51.062;6.920;2022-08-19T17:24:16;4.20;;;3.53;;
4122;SDS011;2075;51.062;6.920;2022-08-19T17:27:02;5.57;;;4.50;;
4122;SDS011;2075;51.062;6.920;2022-08-19T17:29:48;5.93;;;3.80;;
4122;SDS011;2075;51.062;6.920;2022-08-19T17:32:33;3.40;;;3.20;;
4122;SDS011;2075;51.062;6.920;2022-08-19T17:35:18;3.90;;;3.60;;
4122;SDS011;2075;51.062;6.920;2022-08-19T17:38:03;3.50;;;3.00;;
4122;SDS011;2075;51.062;6.920;2022-08-19T17:40:49;4.10;;;3.40;;
4122;SDS011;2075;51.062;6.920;2022-08-19T17:43:35;3.73;;;3.20;;
4122;SDS011;2075;51.062;6.920;2022-08-19T17:46:21;4.33;;;3.07;;
4122;SDS011;2075;51.062;6.920;2022-08-19T17:49:06;3.50;;;3.20;;
4122;SDS011;2075;51.062;6.920;2022-08-19T17:51:51;4.13;;;3.70;;
4122;SDS011;2075;51.062;6.920;2022-08-19T17:54:36;3.47;;;3.23;;
4122;SDS011;2075;51.062;6.920;2022-08-19T17:57:22;3.53;;;3.33;;
4122;SDS011;2075;51.062;6.920;2022-08-19T18:00:08;3.53;;;3.23;;
4122;SDS011;2075;51.062;6.920;2022-08-19T18:02:56;3.63;;;3.33;;
4122;SDS011;2075;51.062;6.920;2022-08-19T18:05:42;6.50;;;3.53;;
4122;SDS011;2075;51.062;6.920;2022-08-19T18:08:28;4.00;;;3.23;;
4122;SDS011;2075;51.062;6.920;2022-08-19T18:11:12;3.37;;;3.17;;
4122;SDS011;2075;51.062;6.920;2022-08-19T18:13:58;2.33;;;2.23;;
4122;SDS011;2075;51.062;6.920;2022-08-19T18:16:44;3.20;;;2.57;;
4122;SDS011;2075;51.062;6.920;2022-08-19T18:19:30;7.53;;;2.30;;
4122;SDS011;2075;51.062;6.920;2022-08-19T18:22:21;4.23;;;3.10;;
4122;SDS011;2075;51.062;6.920;2022-08-19T18:25:08;4.13;;;3.30;;
4122;SDS011;2075;51.062;6.920;2022-08-19T18:27:56;3.10;;;2.77;;
4122;SDS011;2075;51.062;6.920;2022-08-19T18:30:41;3.60;;;3.13;;
4122;SDS011;2075;51.062;6.920;2022-08-19T18:33:28;3.13;;;2.60;;
4122;SDS011;2075;51.062;6.920;2022-08-19T18:36:13;3.37;;;3.07;;
4122;SDS011;2075;51.062;6.920;2022-08-19T18:38:58;3.03;;;2.83;;
4122;SDS011;2075;51.062;6.920;2022-08-19T18:42:01;2.50;;;2.37;;
4122;SDS011;2075;51.062;6.920;2022-08-19T18:45:04;3.87;;;3.13;;
4122;SDS011;2075;51.062;6.920;2022-08-19T18:48:08;5.50;;;3.40;;
4122;SDS011;2075;51.062;6.920;2022-08-19T18:51:12;3.33;;;3.03;;
4122;SDS011;2075;51.062;6.920;2022-08-19T18:53:58;4.00;;;2.97;;
4122;SDS011;2075;51.062;6.920;2022-08-19T18:56:44;2.90;;;2.70;;
4122;SDS011;2075;51.062;6.920;2022-08-19T18:59:30;3.03;;;2.83;;
4122;SDS011;2075;51.062;6.920;2022-08-19T19:02:16;4.13;;;2.53;;
4122;SDS011;2075;51.062;6.920;2022-08-19T19:05:03;3.50;;;3.20;;
4122;SDS011;2075;51.062;6.920;2022-08-19T19:07:49;4.87;;;3.50;;
4122;SDS011;2075;51.062;6.920;2022-08-19T19:10:35;2.97;;;2.67;;
4122;SDS011;2075;51.062;6.920;2022-08-19T19:13:21;3.73;;;2.87;;
4122;SDS011;2075;51.062;6.920;2022-08-19T19:16:06;3.77;;;3.43;;
4122;SDS011;2075;51.062;6.920;2022-08-19T19:18:52;6.90;;;3.43;;